sensor_id;sensor_type;location;lat;lon;timestamp;P1;durP1;ratioP1;P2;durP2;ratioP2
10191;SDS011;17580;50.850;4.504;2022-09-12T00:01:14;3.50;;;3.00;;
10191;SDS011;17580;50.850;4.504;2022-09-12T00:03:43;3.60;;;3.40;;
10191;SDS011;17580;50.850;4.504;2022-09-12T00:06:11;3.47;;;3.30;;
10191;SDS011;17580;50.850;4.504;2022-09-12T00:08:41;4.03;;;3.50;;
10191;SDS011;17580;50.850;4.504;2022-09-12T00:11:09;3.53;;;3.33;;
10191;SDS011;17580;50.850;4.504;2022-09-12T00:13:37;4.37;;;3.93;;
10191;SDS011;17580;50.850;4.504;2022-09-12T00:16:05;3.73;;;3.43;;
10191;SDS011;17580;50.850;4.504;2022-09-12T00:18:32;4.30;;;3.23;;
10191;SDS011;17580;50.850;4.504;2022-09-12T00:21:01;3.23;;;3.03;;
10191;SDS011;17580;50.850;4.504;2022-09-12T00:23:29;3.57;;;3.30;;
10191;SDS011;17580;50.850;4.504;2022-09-12T00:25:58;3.10;;;3.00;;
10191;SDS011;17580;50.850;4.504;2022-09-12T00:28:24;2.90;;;2.70;;
10191;SDS011;17580;50.850;4.504;2022-09-12T00:30:52;3.37;;;3.17;;
10191;SDS011;17580;50.850;4.504;2022-09-12T00:33:19;2.73;;;2.63;;
10191;SDS011;17580;50.850;4.504;2022-09-12T00:35:47;2.43;;;2.30;;
10191;SDS011;17580;50.850;4.504;2022-09-12T00:38:17;3.40;;;3.20;;
10191;SDS011;17580;50.850;4.504;2022-09-12T00:40:45;3.57;;;3.27;;
10191;SDS011;17580;50.850;4.504;2022-09-12T00:43:14;3.03;;;2.83;;
10191;SDS011;17580;50.850;4.504;2022-09-12T00:46:01;3.37;;;3.13;;
10191;SDS011;17580;50.850;4.504;2022-09-12T00:48:32;3.27;;;3.07;;
10191;SDS011;17580;50.850;4.504;2022-09-12T00:51:04;3.30;;;3.10;;
10191;SDS011;17580;50.850;4.504;2022-09-12T00:53:31;3.27;;;3.13;;
10191;SDS011;17580;50.850;4.504;2022-09-12T00:55:58;3.33;;;3.13;;
10191;SDS011;17580;50.850;4.504;2022-09-12T00:58:28;2.90;;;2.80;;
10191;SDS011;17580;50.850;4.504;2022-09-12T01:00:59;2.97;;;2.87;;
10191;SDS011;17580;50.850;4.504;2022-09-12T01:03:26;3.00;;;2.90;;
10191;SDS011;17580;50.850;4.504;2022-09-12T01:05:58;3.20;;;3.00;;
10191;SDS011;17580;50.850;4.504;2022-09-12T01:08:31;2.97;;;2.87;;
10191;SDS011;17580;50.850;4.504;2022-09-12T01:10:59;3.80;;;3.40;;
10191;SDS011;17580;50.850;4.504;2022-09-12T01:13:27;3.30;;;3.10;;
10191;SDS011;17580;50.850;4.504;2022-09-12T01:15:55;3.23;;;3.10;;
10191;SDS011;17580;50.850;4.504;2022-09-12T01:18:24;3.90;;;3.57;;
10191;SDS011;17580;50.850;4.504;2022-09-12T01:21:03;3.23;;;3.03;;
10191;SDS011;17580;50.850;4.504;2022-09-12T01:26:59;3.67;;;3.47;;
10191;SDS011;17580;50.850;4.504;2022-09-12T01:35:56;3.37;;;3.00;;
10191;SDS011;17580;50.850;4.504;2022-09-12T01:38:37;2.90;;;2.80;;
10191;SDS011;17580;50.850;4.504;2022-09-12T01:41:08;3.03;;;2.90;;
10191;SDS011;17580;50.850;4.504;2022-09-12T01:43:41;3.83;;;3.53;;
10191;SDS011;17580;50.850;4.504;2022-09-12T01:46:14;3.40;;;3.10;;
10191;SDS011;17580;50.850;4.504;2022-09-12T01:48:43;6.50;;;4.00;;
10191;SDS011;17580;50.850;4.504;2022-09-12T01:51:17;3.43;;;3.23;;
10191;SDS011;17580;50.850;4.504;2022-09-12T01:53:49;3.70;;;3.40;;
10191;SDS011;17580;50.850;4.504;2022-09-12T01:56:20;3.87;;;3.57;;
10191;SDS011;17580;50.850;4.504;2022-09-12T01:58:51;3.33;;;3.13;;
10191;SDS011;17580;50.850;4.504;2022-09-12T02:01:25;11.30;;;3.97;;
10191;SDS011;17580;50.850;4.504;2022-09-12T02:03:54;4.20;;;3.80;;
10191;SDS011;17580;50.850;4.504;2022-09-12T02:06:26;4.13;;;3.93;;
10191;SDS011;17580;50.850;4.504;2022-09-12T02:08:57;3.77;;;3.47;;
10191;SDS011;17580;50.850;4.504;2022-09-12T02:11:28;4.13;;;3.17;;
10191;SDS011;17580;50.850;4.504;2022-09-12T02:14:00;3.67;;;3.47;;
10191;SDS011;17580;50.850;4.504;2022-09-12T02:16:34;3.50;;;3.33;;
10191;SDS011;17580;50.850;4.504;2022-09-12T02:19:06;4.33;;;4.03;;
10191;SDS011;17580;50.850;4.504;2022-09-12T02:21:38;4.50;;;4.10;;
10191;SDS011;17580;50.850;4.504;2022-09-12T02:24:07;4.10;;;3.80;;
10191;SDS011;17580;50.850;4.504;2022-09-12T02:26:40;4.60;;;4.07;;
10191;SDS011;17580;50.850;4.504;2022-09-12T02:29:11;4.43;;;4.03;;
10191;SDS011;17580;50.850;4.504;2022-09-12T02:31:41;4.00;;;3.80;;
10191;SDS011;17580;50.850;4.504;2022-09-12T02:34:14;4.87;;;4.47;;
10191;SDS011;17580;50.850;4.504;2022-09-12T02:36:51;11.67;;;4.40;;
10191;SDS011;17580;50.850;4.504;2022-09-12T02:39:24;3.43;;;3.23;;
10191;SDS011;17580;50.850;4.504;2022-09-12T02:41:51;4.57;;;4.07;;
10191;SDS011;17580;50.850;4.504;2022-09-12T02:44:21;4.30;;;4.00;;
10191;SDS011;17580;50.850;4.504;2022-09-12T02:46:50;3.63;;;3.53;;
10191;SDS011;17580;50.850;4.504;2022-09-12T02:49:21;4.23;;;4.03;;
10191;SDS011;17580;50.850;4.504;2022-09-12T02:51:48;4.60;;;4.20;;
10191;SDS011;17580;50.850;4.504;2022-09-12T02:54:16;4.37;;;4.07;;
10191;SDS011;17580;50.850;4.504;2022-09-12T02:56:45;4.27;;;4.07;;
10191;SDS011;17580;50.850;4.504;2022-09-12T02:59:13;5.43;;;4.93;;
10191;SDS011;17580;50.850;4.504;2022-09-12T03:01:51;4.23;;;4.03;;
10191;SDS011;17580;50.850;4.504;2022-09-12T03:07:34;4.10;;;3.80;;
10191;SDS011;17580;50.850;4.504;2022-09-12T03:10:13;4.60;;;4.20;;
10191;SDS011;17580;50.850;4.504;2022-09-12T03:12:49;4.47;;;4.00;;
10191;SDS011;17580;50.850;4.504;2022-09-12T03:15:27;4.40;;;4.10;;
10191;SDS011;17580;50.850;4.504;2022-09-12T03:18:07;4.10;;;3.90;;
10191;SDS011;17580;50.850;4.504;2022-09-12T03:20:47;5.20;;;4.80;;
10191;SDS011;17580;50.850;4.504;2022-09-12T03:23:23;4.37;;;4.03;;
10191;SDS011;17580;50.850;4.504;2022-09-12T03:25:56;4.10;;;3.80;;
10191;SDS011;17580;50.850;4.504;2022-09-12T03:28:28;3.93;;;3.73;;
10191;SDS011;17580;50.850;4.504;2022-09-12T03:30:56;4.17;;;3.97;;
10191;SDS011;17580;50.850;4.504;2022-09-12T03:33:25;18.90;;;4.93;;
10191;SDS011;17580;50.850;4.504;2022-09-12T03:35:52;4.53;;;4.23;;
10191;SDS011;17580;50.850;4.504;2022-09-12T03:38:20;5.73;;;5.07;;
10191;SDS011;17580;50.850;4.504;2022-09-12T03:40:47;5.47;;;4.97;;
10191;SDS011;17580;50.850;4.504;2022-09-12T03:43:14;5.20;;;4.70;;
10191;SDS011;17580;50.850;4.504;2022-09-12T03:45:41;4.73;;;4.43;;
10191;SDS011;17580;50.850;4.504;2022-09-12T03:48:08;5.10;;;4.80;;
10191;SDS011;17580;50.850;4.504;2022-09-12T03:50:36;14.97;;;5.27;;
10191;SDS011;17580;50.850;4.504;2022-09-12T03:53:03;5.47;;;4.97;;
10191;SDS011;17580;50.850;4.504;2022-09-12T03:55:30;5.67;;;5.17;;
10191;SDS011;17580;50.850;4.504;2022-09-12T03:57:57;5.70;;;5.10;;
10191;SDS011;17580;50.850;4.504;2022-09-12T04:00:24;5.30;;;4.80;;
10191;SDS011;17580;50.850;4.504;2022-09-12T04:02:54;4.80;;;4.47;;
10191;SDS011;17580;50.850;4.504;2022-09-12T04:05:22;5.70;;;5.20;;
10191;SDS011;17580;50.850;4.504;2022-09-12T04:07:50;5.63;;;5.23;;
10191;SDS011;17580;50.850;4.504;2022-09-12T04:10:17;5.97;;;5.37;;
10191;SDS011;17580;50.850;4.504;2022-09-12T04:12:44;5.97;;;5.33;;
10191;SDS011;17580;50.850;4.504;2022-09-12T04:15:12;5.53;;;5.03;;
10191;SDS011;17580;50.850;4.504;2022-09-12T04:17:39;5.27;;;4.87;;
10191;SDS011;17580;50.850;4.504;2022-09-12T04:20:06;5.63;;;5.23;;
10191;SDS011;17580;50.850;4.504;2022-09-12T04:22:33;6.43;;;5.90;;
10191;SDS011;17580;50.850;4.504;2022-09-12T04:25:02;6.00;;;5.17;;
10191;SDS011;17580;50.850;4.504;2022-09-12T04:27:30;5.00;;;4.70;;
10191;SDS011;17580;50.850;4.504;2022-09-12T04:29:57;5.53;;;5.03;;
10191;SDS011;17580;50.850;4.504;2022-09-12T04:32:24;6.20;;;5.70;;
10191;SDS011;17580;50.850;4.504;2022-09-12T04:34:51;5.30;;;4.90;;
10191;SDS011;17580;50.850;4.504;2022-09-12T04:37:18;6.10;;;5.60;;
10191;SDS011;17580;50.850;4.504;2022-09-12T04:39:45;4.93;;;4.53;;
10191;SDS011;17580;50.850;4.504;2022-09-12T04:42:14;6.73;;;6.13;;
10191;SDS011;17580;50.850;4.504;2022-09-12T04:44:41;6.47;;;5.93;;
10191;SDS011;17580;50.850;4.504;2022-09-12T04:47:09;7.30;;;6.33;;
10191;SDS011;17580;50.850;4.504;2022-09-12T04:49:36;5.83;;;5.40;;
10191;SDS011;17580;50.850;4.504;2022-09-12T04:52:02;5.70;;;5.30;;
10191;SDS011;17580;50.850;4.504;2022-09-12T04:54:29;6.03;;;5.43;;
10191;SDS011;17580;50.850;4.504;2022-09-12T04:56:56;5.30;;;4.90;;
10191;SDS011;17580;50.850;4.504;2022-09-12T04:59:25;6.37;;;5.77;;
10191;SDS011;17580;50.850;4.504;2022-09-12T05:01:52;6.90;;;5.87;;
10191;SDS011;17580;50.850;4.504;2022-09-12T05:04:19;6.70;;;6.10;;
10191;SDS011;17580;50.850;4.504;2022-09-12T05:06:46;6.00;;;5.50;;
10191;SDS011;17580;50.850;4.504;2022-09-12T05:09:13;6.20;;;5.60;;
10191;SDS011;17580;50.850;4.504;2022-09-12T05:11:41;8.45;;;7.65;;
10191;SDS011;17580;50.850;4.504;2022-09-12T05:14:09;7.30;;;6.70;;
10191;SDS011;17580;50.850;4.504;2022-09-12T05:16:38;6.73;;;6.13;;
10191;SDS011;17580;50.850;4.504;2022-09-12T05:19:06;7.13;;;6.50;;
10191;SDS011;17580;50.850;4.504;2022-09-12T05:21:33;8.33;;;5.87;;
10191;SDS011;17580;50.850;4.504;2022-09-12T05:24:00;6.23;;;5.70;;
10191;SDS011;17580;50.850;4.504;2022-09-12T05:26:29;6.27;;;5.77;;
10191;SDS011;17580;50.850;4.504;2022-09-12T05:28:56;7.73;;;6.07;;
10191;SDS011;17580;50.850;4.504;2022-09-12T05:31:23;5.77;;;5.30;;
10191;SDS011;17580;50.850;4.504;2022-09-12T05:33:54;6.90;;;6.20;;
10191;SDS011;17580;50.850;4.504;2022-09-12T05:36:22;6.40;;;5.80;;
10191;SDS011;17580;50.850;4.504;2022-09-12T05:38:50;4.87;;;4.57;;
10191;SDS011;17580;50.850;4.504;2022-09-12T05:41:18;7.23;;;5.60;;
10191;SDS011;17580;50.850;4.504;2022-09-12T05:43:46;6.63;;;6.03;;
10191;SDS011;17580;50.850;4.504;2022-09-12T05:46:18;6.23;;;5.73;;
10191;SDS011;17580;50.850;4.504;2022-09-12T05:48:46;8.40;;;6.33;;
10191;SDS011;17580;50.850;4.504;2022-09-12T05:51:16;6.50;;;5.77;;
10191;SDS011;17580;50.850;4.504;2022-09-12T05:53:45;5.87;;;5.47;;
10191;SDS011;17580;50.850;4.504;2022-09-12T05:56:13;5.80;;;5.30;;
10191;SDS011;17580;50.850;4.504;2022-09-12T05:58:43;6.03;;;5.53;;
10191;SDS011;17580;50.850;4.504;2022-09-12T06:01:12;6.40;;;5.47;;
10191;SDS011;17580;50.850;4.504;2022-09-12T06:03:41;6.27;;;5.70;;
10191;SDS011;17580;50.850;4.504;2022-09-12T06:06:09;5.10;;;4.70;;
10191;SDS011;17580;50.850;4.504;2022-09-12T06:08:40;7.00;;;5.30;;
10191;SDS011;17580;50.850;4.504;2022-09-12T06:11:09;6.30;;;5.80;;
10191;SDS011;17580;50.850;4.504;2022-09-12T06:13:37;9.50;;;6.27;;
10191;SDS011;17580;50.850;4.504;2022-09-12T06:16:05;5.67;;;5.13;;
10191;SDS011;17580;50.850;4.504;2022-09-12T06:18:34;5.60;;;5.20;;
10191;SDS011;17580;50.850;4.504;2022-09-12T06:21:02;6.67;;;6.07;;
10191;SDS011;17580;50.850;4.504;2022-09-12T06:23:30;5.67;;;5.17;;
10191;SDS011;17580;50.850;4.504;2022-09-12T06:25:59;5.03;;;4.63;;
10191;SDS011;17580;50.850;4.504;2022-09-12T06:28:26;7.03;;;6.40;;
10191;SDS011;17580;50.850;4.504;2022-09-12T06:30:53;5.53;;;5.13;;
10191;SDS011;17580;50.850;4.504;2022-09-12T06:33:26;5.40;;;5.00;;
10191;SDS011;17580;50.850;4.504;2022-09-12T06:35:53;9.00;;;6.83;;
10191;SDS011;17580;50.850;4.504;2022-09-12T06:38:20;7.13;;;6.50;;
10191;SDS011;17580;50.850;4.504;2022-09-12T06:40:47;8.27;;;7.47;;
10191;SDS011;17580;50.850;4.504;2022-09-12T06:43:15;9.00;;;6.13;;
10191;SDS011;17580;50.850;4.504;2022-09-12T06:45:47;6.00;;;5.60;;
10191;SDS011;17580;50.850;4.504;2022-09-12T06:48:15;6.90;;;6.30;;
10191;SDS011;17580;50.850;4.504;2022-09-12T06:50:42;8.47;;;7.63;;
10191;SDS011;17580;50.850;4.504;2022-09-12T06:53:09;7.00;;;6.47;;
10191;SDS011;17580;50.850;4.504;2022-09-12T06:55:36;6.97;;;6.27;;
10191;SDS011;17580;50.850;4.504;2022-09-12T06:58:03;7.53;;;6.80;;
10191;SDS011;17580;50.850;4.504;2022-09-12T07:00:32;5.80;;;5.40;;
10191;SDS011;17580;50.850;4.504;2022-09-12T07:02:59;6.53;;;6.03;;
10191;SDS011;17580;50.850;4.504;2022-09-12T07:05:26;4.63;;;4.33;;
10191;SDS011;17580;50.850;4.504;2022-09-12T07:07:53;5.67;;;5.27;;
10191;SDS011;17580;50.850;4.504;2022-09-12T07:10:20;6.63;;;6.03;;
10191;SDS011;17580;50.850;4.504;2022-09-12T07:12:46;7.70;;;5.87;;
10191;SDS011;17580;50.850;4.504;2022-09-12T07:15:13;6.00;;;5.50;;
10191;SDS011;17580;50.850;4.504;2022-09-12T07:17:43;5.17;;;4.67;;
10191;SDS011;17580;50.850;4.504;2022-09-12T07:20:10;5.60;;;5.10;;
10191;SDS011;17580;50.850;4.504;2022-09-12T07:22:37;5.63;;;5.13;;
10191;SDS011;17580;50.850;4.504;2022-09-12T07:25:05;5.33;;;4.93;;
10191;SDS011;17580;50.850;4.504;2022-09-12T07:27:32;4.90;;;4.60;;
10191;SDS011;17580;50.850;4.504;2022-09-12T07:30:01;5.93;;;5.27;;
10191;SDS011;17580;50.850;4.504;2022-09-12T07:32:29;5.43;;;5.03;;
10191;SDS011;17580;50.850;4.504;2022-09-12T07:34:57;6.53;;;5.97;;
10191;SDS011;17580;50.850;4.504;2022-09-12T07:37:24;6.70;;;6.10;;
10191;SDS011;17580;50.850;4.504;2022-09-12T07:39:53;4.90;;;4.60;;
10191;SDS011;17580;50.850;4.504;2022-09-12T07:42:20;5.70;;;5.27;;
10191;SDS011;17580;50.850;4.504;2022-09-12T07:44:47;6.03;;;5.43;;
10191;SDS011;17580;50.850;4.504;2022-09-12T07:47:16;5.37;;;4.90;;
10191;SDS011;17580;50.850;4.504;2022-09-12T07:49:43;5.83;;;5.43;;
10191;SDS011;17580;50.850;4.504;2022-09-12T07:52:11;5.70;;;5.30;;
10191;SDS011;17580;50.850;4.504;2022-09-12T07:54:38;5.23;;;4.80;;
10191;SDS011;17580;50.850;4.504;2022-09-12T07:57:05;5.90;;;5.10;;
10191;SDS011;17580;50.850;4.504;2022-09-12T07:59:32;6.10;;;5.60;;
10191;SDS011;17580;50.850;4.504;2022-09-12T08:01:59;9.43;;;6.00;;
10191;SDS011;17580;50.850;4.504;2022-09-12T08:04:27;4.70;;;4.40;;
10191;SDS011;17580;50.850;4.504;2022-09-12T08:06:55;5.60;;;5.10;;
10191;SDS011;17580;50.850;4.504;2022-09-12T08:09:23;5.97;;;5.37;;
10191;SDS011;17580;50.850;4.504;2022-09-12T08:11:50;4.20;;;3.97;;
10191;SDS011;17580;50.850;4.504;2022-09-12T08:14:17;4.20;;;3.90;;
10191;SDS011;17580;50.850;4.504;2022-09-12T08:16:45;4.13;;;3.80;;
10191;SDS011;17580;50.850;4.504;2022-09-12T08:19:12;3.83;;;3.63;;
10191;SDS011;17580;50.850;4.504;2022-09-12T08:21:39;4.20;;;3.90;;
10191;SDS011;17580;50.850;4.504;2022-09-12T08:24:06;4.23;;;3.90;;
10191;SDS011;17580;50.850;4.504;2022-09-12T08:26:34;3.27;;;3.10;;
10191;SDS011;17580;50.850;4.504;2022-09-12T08:29:01;3.83;;;3.53;;
10191;SDS011;17580;50.850;4.504;2022-09-12T08:31:29;4.20;;;3.87;;
10191;SDS011;17580;50.850;4.504;2022-09-12T08:34:00;3.10;;;2.90;;
10191;SDS011;17580;50.850;4.504;2022-09-12T08:36:27;3.57;;;3.37;;
10191;SDS011;17580;50.850;4.504;2022-09-12T08:38:55;3.60;;;3.30;;
10191;SDS011;17580;50.850;4.504;2022-09-12T08:41:24;4.10;;;3.80;;
10191;SDS011;17580;50.850;4.504;2022-09-12T08:44:06;4.00;;;3.70;;
10191;SDS011;17580;50.850;4.504;2022-09-12T08:46:58;3.90;;;3.60;;
10191;SDS011;17580;50.850;4.504;2022-09-12T08:49:43;4.13;;;3.77;;
10191;SDS011;17580;50.850;4.504;2022-09-12T08:52:19;3.73;;;3.43;;
10191;SDS011;17580;50.850;4.504;2022-09-12T08:54:49;4.60;;;4.30;;
10191;SDS011;17580;50.850;4.504;2022-09-12T08:57:16;4.43;;;3.93;;
10191;SDS011;17580;50.850;4.504;2022-09-12T08:59:44;4.17;;;3.77;;
10191;SDS011;17580;50.850;4.504;2022-09-12T09:02:18;3.77;;;3.47;;
10191;SDS011;17580;50.850;4.504;2022-09-12T09:05:13;4.00;;;3.70;;
10191;SDS011;17580;50.850;4.504;2022-09-12T09:08:01;5.47;;;4.00;;
10191;SDS011;17580;50.850;4.504;2022-09-12T09:10:47;3.47;;;3.27;;
10191;SDS011;17580;50.850;4.504;2022-09-12T09:13:23;5.27;;;3.20;;
10191;SDS011;17580;50.850;4.504;2022-09-12T09:16:18;2.90;;;2.70;;
10191;SDS011;17580;50.850;4.504;2022-09-12T09:18:52;2.23;;;2.13;;
10191;SDS011;17580;50.850;4.504;2022-09-12T09:21:22;2.90;;;2.70;;
10191;SDS011;17580;50.850;4.504;2022-09-12T09:23:56;2.47;;;2.27;;
10191;SDS011;17580;50.850;4.504;2022-09-12T09:26:28;2.63;;;2.43;;
10191;SDS011;17580;50.850;4.504;2022-09-12T09:29:01;2.63;;;2.53;;
10191;SDS011;17580;50.850;4.504;2022-09-12T09:31:34;2.40;;;2.30;;
10191;SDS011;17580;50.850;4.504;2022-09-12T09:34:05;3.00;;;2.80;;
10191;SDS011;17580;50.850;4.504;2022-09-12T09:36:43;2.60;;;2.10;;
10191;SDS011;17580;50.850;4.504;2022-09-12T09:39:18;2.40;;;2.30;;
10191;SDS011;17580;50.850;4.504;2022-09-12T09:42:00;1.90;;;1.87;;
10191;SDS011;17580;50.850;4.504;2022-09-12T09:44:45;1.83;;;1.83;;
10191;SDS011;17580;50.850;4.504;2022-09-12T09:47:14;1.83;;;1.83;;
10191;SDS011;17580;50.850;4.504;2022-09-12T09:49:44;1.88;;;1.80;;
10191;SDS011;17580;50.850;4.504;2022-09-12T09:52:12;1.70;;;1.70;;
10191;SDS011;17580;50.850;4.504;2022-09-12T09:54:42;2.17;;;2.05;;
10191;SDS011;17580;50.850;4.504;2022-09-12T10:03:05;1.50;;;1.50;;
10191;SDS011;17580;50.850;4.504;2022-09-12T10:05:52;1.90;;;1.80;;
10191;SDS011;17580;50.850;4.504;2022-09-12T10:08:22;2.20;;;2.00;;
10191;SDS011;17580;50.850;4.504;2022-09-12T10:10:52;2.10;;;2.00;;
10191;SDS011;17580;50.850;4.504;2022-09-12T10:13:26;1.60;;;1.60;;
10191;SDS011;17580;50.850;4.504;2022-09-12T10:15:59;4.03;;;2.00;;
10191;SDS011;17580;50.850;4.504;2022-09-12T10:18:34;2.03;;;1.92;;
10191;SDS011;17580;50.850;4.504;2022-09-12T10:21:10;1.90;;;1.80;;
10191;SDS011;17580;50.850;4.504;2022-09-12T10:23:40;1.55;;;1.52;;
10191;SDS011;17580;50.850;4.504;2022-09-12T10:26:08;1.88;;;1.77;;
10191;SDS011;17580;50.850;4.504;2022-09-12T10:28:38;1.90;;;1.80;;
10191;SDS011;17580;50.850;4.504;2022-09-12T10:31:07;2.28;;;2.08;;
10191;SDS011;17580;50.850;4.504;2022-09-12T10:33:40;1.40;;;1.40;;
10191;SDS011;17580;50.850;4.504;2022-09-12T10:36:11;2.30;;;1.70;;
10191;SDS011;17580;50.850;4.504;2022-09-12T10:38:39;1.55;;;1.55;;
10191;SDS011;17580;50.850;4.504;2022-09-12T10:41:16;1.85;;;1.85;;
10191;SDS011;17580;50.850;4.504;2022-09-12T10:43:43;1.65;;;1.55;;
10191;SDS011;17580;50.850;4.504;2022-09-12T10:46:21;1.85;;;1.75;;
10191;SDS011;17580;50.850;4.504;2022-09-12T10:51:39;1.67;;;1.58;;
10191;SDS011;17580;50.850;4.504;2022-09-12T10:54:07;1.67;;;1.58;;
10191;SDS011;17580;50.850;4.504;2022-09-12T10:56:37;2.65;;;1.58;;
10191;SDS011;17580;50.850;4.504;2022-09-12T10:59:14;1.98;;;1.88;;
10191;SDS011;17580;50.850;4.504;2022-09-12T11:01:48;2.10;;;2.00;;
10191;SDS011;17580;50.850;4.504;2022-09-12T11:04:25;1.58;;;1.58;;
10191;SDS011;17580;50.850;4.504;2022-09-12T11:07:00;1.80;;;1.70;;
10191;SDS011;17580;50.850;4.504;2022-09-12T11:09:41;1.90;;;1.80;;
10191;SDS011;17580;50.850;4.504;2022-09-12T11:12:16;2.70;;;1.92;;
10191;SDS011;17580;50.850;4.504;2022-09-12T11:14:54;1.80;;;1.70;;
10191;SDS011;17580;50.850;4.504;2022-09-12T11:17:32;2.40;;;1.60;;
10191;SDS011;17580;50.850;4.504;2022-09-12T11:20:14;1.50;;;1.40;;
10191;SDS011;17580;50.850;4.504;2022-09-12T11:25:56;1.90;;;1.80;;
10191;SDS011;17580;50.850;4.504;2022-09-12T11:28:34;1.60;;;1.60;;
10191;SDS011;17580;50.850;4.504;2022-09-12T11:31:14;1.80;;;1.70;;
10191;SDS011;17580;50.850;4.504;2022-09-12T11:34:07;2.05;;;1.90;;
10191;SDS011;17580;50.850;4.504;2022-09-12T11:36:38;2.22;;;2.05;;
10191;SDS011;17580;50.850;4.504;2022-09-12T11:39:14;1.70;;;1.60;;
10191;SDS011;17580;50.850;4.504;2022-09-12T11:41:42;2.17;;;2.08;;
10191;SDS011;17580;50.850;4.504;2022-09-12T11:44:16;1.65;;;1.60;;
10191;SDS011;17580;50.850;4.504;2022-09-12T11:46:47;2.55;;;2.00;;
10191;SDS011;17580;50.850;4.504;2022-09-12T11:49:25;2.15;;;1.95;;
10191;SDS011;17580;50.850;4.504;2022-09-12T11:52:00;1.55;;;1.52;;
10191;SDS011;17580;50.850;4.504;2022-09-12T11:54:32;1.90;;;1.80;;
10191;SDS011;17580;50.850;4.504;2022-09-12T11:57:06;2.45;;;1.60;;
10191;SDS011;17580;50.850;4.504;2022-09-12T11:59:42;2.00;;;1.90;;
10191;SDS011;17580;50.850;4.504;2022-09-12T12:02:16;2.22;;;2.03;;
10191;SDS011;17580;50.850;4.504;2022-09-12T12:04:54;2.25;;;2.10;;
10191;SDS011;17580;50.850;4.504;2022-09-12T12:07:30;2.08;;;1.98;;
10191;SDS011;17580;50.850;4.504;2022-09-12T12:10:06;1.77;;;1.70;;
10191;SDS011;17580;50.850;4.504;2022-09-12T12:12:46;3.58;;;1.98;;
10191;SDS011;17580;50.850;4.504;2022-09-12T12:15:14;2.10;;;1.90;;
10191;SDS011;17580;50.850;4.504;2022-09-12T12:17:42;2.03;;;1.92;;
10191;SDS011;17580;50.850;4.504;2022-09-12T12:20:14;2.00;;;1.90;;
10191;SDS011;17580;50.850;4.504;2022-09-12T12:22:51;1.83;;;1.83;;
10191;SDS011;17580;50.850;4.504;2022-09-12T12:25:23;2.30;;;1.98;;
10191;SDS011;17580;50.850;4.504;2022-09-12T12:27:53;1.70;;;1.70;;
10191;SDS011;17580;50.850;4.504;2022-09-12T12:36:28;1.83;;;1.73;;
10191;SDS011;17580;50.850;4.504;2022-09-12T12:38:59;2.03;;;1.92;;
10191;SDS011;17580;50.850;4.504;2022-09-12T12:45:57;2.40;;;2.20;;
10191;SDS011;17580;50.850;4.504;2022-09-12T12:48:31;1.92;;;1.83;;
10191;SDS011;17580;50.850;4.504;2022-09-12T12:51:28;2.50;;;1.90;;
10191;SDS011;17580;50.850;4.504;2022-09-12T12:53:58;1.70;;;1.70;;
10191;SDS011;17580;50.850;4.504;2022-09-12T12:56:33;2.22;;;2.00;;
10191;SDS011;17580;50.850;4.504;2022-09-12T12:59:10;2.30;;;2.15;;
10191;SDS011;17580;50.850;4.504;2022-09-12T13:01:47;1.55;;;1.50;;
10191;SDS011;17580;50.850;4.504;2022-09-12T13:04:18;1.60;;;1.50;;
10191;SDS011;17580;50.850;4.504;2022-09-12T13:06:54;1.88;;;1.67;;
10191;SDS011;17580;50.850;4.504;2022-09-12T13:09:25;1.90;;;1.80;;
10191;SDS011;17580;50.850;4.504;2022-09-12T13:12:03;1.70;;;1.60;;
10191;SDS011;17580;50.850;4.504;2022-09-12T13:14:37;1.67;;;1.58;;
10191;SDS011;17580;50.850;4.504;2022-09-12T13:17:18;2.93;;;1.80;;
10191;SDS011;17580;50.850;4.504;2022-09-12T13:19:50;1.97;;;1.87;;
10191;SDS011;17580;50.850;4.504;2022-09-12T13:22:20;2.20;;;2.00;;
10191;SDS011;17580;50.850;4.504;2022-09-12T13:24:49;2.30;;;2.10;;
10191;SDS011;17580;50.850;4.504;2022-09-12T13:27:18;1.60;;;1.50;;
10191;SDS011;17580;50.850;4.504;2022-09-12T13:29:46;2.00;;;1.90;;
10191;SDS011;17580;50.850;4.504;2022-09-12T13:32:13;3.20;;;2.10;;
10191;SDS011;17580;50.850;4.504;2022-09-12T13:34:46;1.53;;;1.53;;
10191;SDS011;17580;50.850;4.504;2022-09-12T13:37:35;2.00;;;1.90;;
10191;SDS011;17580;50.850;4.504;2022-09-12T13:40:21;2.03;;;1.83;;
10191;SDS011;17580;50.850;4.504;2022-09-12T13:43:06;2.07;;;1.83;;
10191;SDS011;17580;50.850;4.504;2022-09-12T13:45:39;3.57;;;2.00;;
10191;SDS011;17580;50.850;4.504;2022-09-12T13:48:09;2.83;;;2.17;;
10191;SDS011;17580;50.850;4.504;2022-09-12T13:50:43;2.07;;;1.70;;
10191;SDS011;17580;50.850;4.504;2022-09-12T13:53:16;1.83;;;1.73;;
10191;SDS011;17580;50.850;4.504;2022-09-12T13:55:46;2.00;;;1.80;;
10191;SDS011;17580;50.850;4.504;2022-09-12T13:58:18;2.00;;;1.90;;
10191;SDS011;17580;50.850;4.504;2022-09-12T14:00:58;3.77;;;2.10;;
10191;SDS011;17580;50.850;4.504;2022-09-12T14:03:26;2.00;;;1.90;;
10191;SDS011;17580;50.850;4.504;2022-09-12T14:06:13;2.23;;;2.00;;
10191;SDS011;17580;50.850;4.504;2022-09-12T14:08:43;1.80;;;1.70;;
10191;SDS011;17580;50.850;4.504;2022-09-12T14:11:16;4.77;;;1.73;;
10191;SDS011;17580;50.850;4.504;2022-09-12T14:13:50;1.50;;;1.40;;
10191;SDS011;17580;50.850;4.504;2022-09-12T14:16:17;1.70;;;1.60;;
10191;SDS011;17580;50.850;4.504;2022-09-12T14:18:47;2.30;;;1.83;;
10191;SDS011;17580;50.850;4.504;2022-09-12T14:21:22;2.43;;;2.23;;
10191;SDS011;17580;50.850;4.504;2022-09-12T14:23:57;1.37;;;1.37;;
10191;SDS011;17580;50.850;4.504;2022-09-12T14:26:26;2.20;;;2.00;;
10191;SDS011;17580;50.850;4.504;2022-09-12T14:28:57;1.90;;;1.80;;
10191;SDS011;17580;50.850;4.504;2022-09-12T14:31:27;2.10;;;2.00;;
10191;SDS011;17580;50.850;4.504;2022-09-12T14:34:06;1.70;;;1.70;;
10191;SDS011;17580;50.850;4.504;2022-09-12T14:36:38;2.10;;;1.93;;
10191;SDS011;17580;50.850;4.504;2022-09-12T14:39:18;1.63;;;1.60;;
10191;SDS011;17580;50.850;4.504;2022-09-12T14:41:48;3.63;;;1.90;;
10191;SDS011;17580;50.850;4.504;2022-09-12T14:44:18;1.60;;;1.50;;
10191;SDS011;17580;50.850;4.504;2022-09-12T14:46:49;1.93;;;1.90;;
10191;SDS011;17580;50.850;4.504;2022-09-12T14:49:17;1.87;;;1.50;;
10191;SDS011;17580;50.850;4.504;2022-09-12T14:51:53;1.63;;;1.53;;
10191;SDS011;17580;50.850;4.504;2022-09-12T14:54:35;1.93;;;1.83;;
10191;SDS011;17580;50.850;4.504;2022-09-12T14:57:04;1.57;;;1.57;;
10191;SDS011;17580;50.850;4.504;2022-09-12T14:59:35;2.00;;;1.90;;
10191;SDS011;17580;50.850;4.504;2022-09-12T15:02:10;1.50;;;1.50;;
10191;SDS011;17580;50.850;4.504;2022-09-12T15:04:48;1.90;;;1.80;;
10191;SDS011;17580;50.850;4.504;2022-09-12T15:07:21;1.60;;;1.50;;
10191;SDS011;17580;50.850;4.504;2022-09-12T15:09:56;2.00;;;1.90;;
10191;SDS011;17580;50.850;4.504;2022-09-12T15:12:24;3.60;;;2.13;;
10191;SDS011;17580;50.850;4.504;2022-09-12T15:14:51;1.70;;;1.60;;
10191;SDS011;17580;50.850;4.504;2022-09-12T15:17:18;2.23;;;2.03;;
10191;SDS011;17580;50.850;4.504;2022-09-12T15:19:45;1.60;;;1.50;;
10191;SDS011;17580;50.850;4.504;2022-09-12T15:22:12;2.17;;;1.50;;
10191;SDS011;17580;50.850;4.504;2022-09-12T15:24:40;1.80;;;1.70;;
10191;SDS011;17580;50.850;4.504;2022-09-12T15:27:08;1.77;;;1.67;;
10191;SDS011;17580;50.850;4.504;2022-09-12T15:29:36;1.97;;;1.87;;
10191;SDS011;17580;50.850;4.504;2022-09-12T15:32:04;1.60;;;1.50;;
10191;SDS011;17580;50.850;4.504;2022-09-12T15:34:32;1.80;;;1.70;;
10191;SDS011;17580;50.850;4.504;2022-09-12T15:36:59;1.70;;;1.60;;
10191;SDS011;17580;50.850;4.504;2022-09-12T15:39:26;1.43;;;1.43;;
10191;SDS011;17580;50.850;4.504;2022-09-12T15:41:54;1.30;;;1.30;;
10191;SDS011;17580;50.850;4.504;2022-09-12T15:44:21;1.50;;;1.47;;
10191;SDS011;17580;50.850;4.504;2022-09-12T15:46:48;1.57;;;1.47;;